Time;durP1;ratioP1;P1;durP2;ratioP2;P2;SDS_P1;SDS_P2;PMS_P1;PMS_P2;Temp;Humidity;BMP_temperature;BMP_pressure;BME280_temperature;BME280_humidity;BME280_pressure;Samples;Min_cycle;Max_cycle;Signal;HPM_P1;HPM_P2
2023/04/26 00:02:23;;;;;;;9.00;2.00;;;4.80;1.00;;;;;;6182412;23;20185;-91
2023/04/26 00:04:54;;;;;;;4.87;1.80;;;4.80;1.00;;;;;;6182287;23;20213;-90
2023/04/26 00:07:23;;;;;;;4.67;1.80;;;4.70;1.00;;;;;;6182429;23;20170;-91
2023/04/26 00:09:51;;;;;;;7.87;1.90;;;4.70;1.00;;;;;;6181834;23;20166;-90
2023/04/26 00:12:17;;;;;;;7.27;1.93;;;4.70;1.00;;;;;;6182196;23;20224;-90
2023/04/26 00:14:43;;;;;;;8.87;2.50;;;4.70;1.00;;;;;;6182180;23;20183;-91
2023/04/26 00:17:08;;;;;;;4.13;1.60;;;4.70;1.00;;;;;;6182077;23;20579;-90
2023/04/26 00:19:34;;;;;;;4.03;1.60;;;4.70;1.00;;;;;;6181942;23;20181;-90
2023/04/26 00:21:59;;;;;;;10.20;1.80;;;4.70;1.00;;;;;;6182120;23;20174;-90
2023/04/26 00:24:25;;;;;;;6.50;2.10;;;4.70;1.00;;;;;;6182384;23;20190;-91
2023/04/26 00:26:56;;;;;;;6.40;2.30;;;4.70;1.00;;;;;;6182203;23;20158;-91
2023/04/26 00:29:21;;;;;;;8.97;2.30;;;4.70;1.00;;;;;;6181840;23;20224;-90
2023/04/26 00:36:58;;;;;;;7.43;1.70;;;4.60;1.00;;;;;;6181366;22;20254;-87
2023/04/26 00:39:23;;;;;;;5.63;1.97;;;5.10;1.00;;;;;;6175821;23;20163;-87
2023/04/26 00:41:55;;;;;;;7.60;2.63;;;4.70;1.00;;;;;;6170722;23;20207;-88
2023/04/26 00:44:21;;;;;;;4.87;1.73;;;4.50;1.00;;;;;;6172123;23;20162;-86
2023/04/26 00:46:49;;;;;;;4.73;2.20;;;5.50;1.00;;;;;;6171771;23;20241;-89
2023/04/26 00:49:22;;;;;;;5.77;1.70;;;4.70;1.00;;;;;;6172905;23;20163;-87
2023/04/26 00:51:50;;;;;;;6.83;1.87;;;5.00;1.00;;;;;;6172641;23;20435;-87
2023/04/26 00:57:56;;;;;;;4.37;1.93;;;5.00;1.00;;;;;;6029385;23;20185;-88
2023/04/26 01:00:22;;;;;;;6.90;1.83;;;4.30;1.00;;;;;;6131064;23;20163;-87
2023/04/26 01:02:47;;;;;;;5.43;1.93;;;5.10;1.00;;;;;;6176220;23;20415;-86
2023/04/26 01:05:13;;;;;;;4.40;2.10;;;5.10;1.00;;;;;;6176484;23;20163;-87
2023/04/26 01:07:39;;;;;;;4.63;2.10;;;5.20;1.00;;;;;;6178468;23;20155;-87
2023/04/26 01:10:05;;;;;;;6.63;2.03;;;4.30;1.00;;;;;;6178494;23;20155;-87
2023/04/26 01:12:34;;;;;;;7.27;2.40;;;4.40;1.00;;;;;;6178185;23;20170;-87
2023/04/26 01:15:00;;;;;;;5.57;2.20;;;5.00;1.00;;;;;;6177931;23;20257;-87
2023/04/26 01:17:26;;;;;;;5.57;1.80;;;4.30;1.00;;;;;;6177834;23;20248;-87
2023/04/26 01:19:51;;;;;;;8.23;2.40;;;4.60;1.00;;;;;;6178051;23;20183;-87
2023/04/26 01:22:17;;;;;;;6.87;2.60;;;4.10;1.00;;;;;;6179553;23;20506;-88
2023/04/26 01:24:45;;;;;;;4.27;2.07;;;5.40;1.00;;;;;;6180221;23;20231;-86
2023/04/26 01:27:11;;;;;;;5.33;2.10;;;4.50;1.00;;;;;;6178307;23;20167;-87
2023/04/26 01:29:37;;;;;;;7.00;2.10;;;4.20;1.00;;;;;;6177724;23;20213;-86
2023/04/26 01:32:03;;;;;;;6.57;2.10;;;5.20;1.00;;;;;;6178010;23;20214;-87
2023/04/26 01:34:28;;;;;;;8.13;2.50;;;4.30;1.00;;;;;;6177593;23;20179;-86
2023/04/26 01:36:54;;;;;;;10.70;3.13;;;4.20;1.00;;;;;;6177798;23;20179;-87
2023/04/26 01:39:20;;;;;;;7.90;2.73;;;4.10;1.00;;;;;;6177558;23;20165;-89
2023/04/26 01:41:45;;;;;;;6.50;2.20;;;4.30;1.00;;;;;;6177777;23;20183;-89
2023/04/26 01:44:11;;;;;;;5.80;2.20;;;4.10;1.00;;;;;;6178135;23;20275;-87
2023/04/26 01:46:37;;;;;;;7.90;2.27;;;4.00;1.00;;;;;;6177725;23;20170;-88
2023/04/26 01:49:02;;;;;;;5.43;2.03;;;4.80;1.00;;;;;;6177535;23;20171;-88
2023/04/26 01:51:28;;;;;;;8.10;2.10;;;4.70;1.00;;;;;;6179239;23;20171;-89
2023/04/26 01:53:53;;;;;;;7.87;2.13;;;5.30;1.00;;;;;;6179673;23;20170;-87
2023/04/26 01:56:19;;;;;;;7.77;2.53;;;4.90;1.00;;;;;;6177224;23;20261;-88
2023/04/26 01:58:45;;;;;;;7.20;2.43;;;4.90;1.00;;;;;;6176370;23;20166;-87
2023/04/26 02:01:11;;;;;;;8.03;2.30;;;4.90;1.00;;;;;;6176576;23;20166;-88
2023/04/26 02:03:37;;;;;;;7.40;2.47;;;4.70;1.00;;;;;;6178129;23;20159;-88
2023/04/26 02:06:02;;;;;;;4.97;2.57;;;4.90;1.00;;;;;;6177545;23;20213;-88
2023/04/26 02:08:28;;;;;;;7.47;2.70;;;4.10;1.00;;;;;;6177633;23;20624;-87
2023/04/26 02:10:54;;;;;;;9.20;3.47;;;4.10;1.00;;;;;;6177746;23;20171;-87
2023/04/26 02:13:20;;;;;;;8.43;3.10;;;4.10;1.00;;;;;;6177725;23;20245;-87
2023/04/26 02:15:50;;;;;;;7.83;3.03;;;4.70;1.00;;;;;;6177455;23;20832;-87
2023/04/26 02:18:16;;;;;;;6.43;2.80;;;4.10;1.00;;;;;;6178996;23;20154;-87
2023/04/26 02:20:43;;;;;;;7.07;2.40;;;4.60;1.00;;;;;;6177269;23;20163;-87
2023/04/26 02:23:09;;;;;;;7.07;2.50;;;4.30;1.00;;;;;;6177619;23;20627;-87
2023/04/26 02:25:36;;;;;;;5.87;2.17;;;3.70;1.00;;;;;;6177584;23;20204;-88
2023/04/26 02:28:02;;;;;;;6.40;2.30;;;4.70;1.00;;;;;;6179020;23;20945;-88
2023/04/26 02:30:27;;;;;;;9.07;2.70;;;3.70;1.00;;;;;;6179044;23;20238;-87
2023/04/26 02:32:53;;;;;;;4.67;2.13;;;3.70;1.00;;;;;;6177074;23;20215;-87
2023/04/26 02:35:19;;;;;;;7.43;2.33;;;4.60;1.00;;;;;;6177513;23;20186;-88
2023/04/26 02:37:47;;;;;;;10.33;2.30;;;3.70;1.00;;;;;;6178582;23;20182;-87
2023/04/26 02:40:13;;;;;;;6.57;2.30;;;3.40;1.00;;;;;;6177311;23;20166;-88
2023/04/26 02:42:41;;;;;;;5.50;2.40;;;4.30;1.00;;;;;;6177350;23;20179;-87
2023/04/26 02:45:07;;;;;;;3.53;2.17;;;4.00;1.00;;;;;;6177639;23;20600;-87
2023/04/26 02:47:35;;;;;;;7.03;2.40;;;3.70;1.00;;;;;;6177202;23;20321;-87
2023/04/26 02:50:02;;;;;;;6.47;2.50;;;3.70;1.00;;;;;;6177260;23;20249;-88
2023/04/26 02:52:28;;;;;;;7.77;2.10;;;3.70;1.00;;;;;;6177308;23;20266;-88
2023/04/26 02:54:54;;;;;;;5.43;2.07;;;4.90;1.00;;;;;;6177434;23;20210;-88
2023/04/26 02:57:19;;;;;;;6.47;2.07;;;4.50;1.00;;;;;;6177486;23;20163;-87
2023/04/26 02:59:45;;;;;;;8.10;2.47;;;3.60;1.00;;;;;;6176803;23;20224;-88
2023/04/26 03:02:11;;;;;;;6.67;2.60;;;4.10;1.00;;;;;;6177354;23;20186;-87
2023/04/26 03:04:37;;;;;;;5.37;1.90;;;4.20;1.00;;;;;;6177226;23;20168;-88
2023/04/26 03:07:04;;;;;;;9.63;2.30;;;4.30;1.00;;;;;;6178956;23;20216;-88
2023/04/26 03:09:30;;;;;;;6.30;2.33;;;4.40;1.00;;;;;;6176920;23;20147;-87
2023/04/26 03:11:56;;;;;;;7.13;2.17;;;4.20;1.00;;;;;;6176922;23;20193;-87
2023/04/26 03:14:22;;;;;;;5.90;2.13;;;4.30;1.00;;;;;;6177140;23;20269;-87
2023/04/26 03:16:47;;;;;;;9.03;2.40;;;4.10;1.00;;;;;;6176631;23;20194;-88
2023/04/26 03:19:13;;;;;;;5.27;2.13;;;4.70;1.00;;;;;;6176985;23;20162;-88
2023/04/26 03:21:39;;;;;;;8.83;2.70;;;3.50;1.00;;;;;;6177191;23;20266;-88
2023/04/26 03:24:05;;;;;;;7.40;2.77;;;3.40;1.00;;;;;;6177142;23;20217;-88
2023/04/26 03:26:31;;;;;;;6.87;2.47;;;3.50;1.00;;;;;;6178611;23;20155;-87
2023/04/26 03:28:57;;;;;;;5.83;2.57;;;3.40;1.00;;;;;;6175460;23;20365;-88
2023/04/26 03:31:26;;;;;;;8.90;2.77;;;3.90;1.00;;;;;;6178528;23;20261;-88
2023/04/26 03:33:51;;;;;;;6.30;2.33;;;3.20;1.00;;;;;;6177250;23;20187;-88
2023/04/26 03:36:17;;;;;;;9.03;2.50;;;4.30;1.00;;;;;;6176601;23;20166;-88
2023/04/26 03:38:42;;;;;;;6.47;2.70;;;3.50;1.00;;;;;;6176740;23;20151;-87
2023/04/26 03:41:08;;;;;;;3.47;2.23;;;4.50;1.00;;;;;;6176826;23;20167;-88
2023/04/26 03:43:33;;;;;;;6.73;2.43;;;3.50;1.00;;;;;;6180065;23;20159;-87
2023/04/26 03:46:00;;;;;;;4.70;2.67;;;3.70;1.00;;;;;;6178251;23;20162;-88
2023/04/26 03:48:26;;;;;;;8.53;2.57;;;3.40;1.00;;;;;;6176781;23;20158;-87
2023/04/26 03:50:52;;;;;;;7.27;2.63;;;3.50;1.00;;;;;;6178219;23;20618;-88
2023/04/26 03:53:17;;;;;;;6.53;2.73;;;3.50;1.00;;;;;;6177054;23;20693;-88
2023/04/26 03:55:43;;;;;;;6.47;2.53;;;3.50;1.00;;;;;;6177087;23;20237;-87
2023/04/26 03:58:09;;;;;;;12.53;4.30;;;3.50;1.00;;;;;;6176777;23;20584;-87
2023/04/26 04:00:38;;;;;;;5.27;2.67;;;4.30;1.00;;;;;;6176903;23;20217;-88
2023/04/26 04:03:05;;;;;;;7.73;2.20;;;4.50;1.00;;;;;;6176731;23;20182;-87
2023/04/26 04:05:31;;;;;;;6.83;2.67;;;3.70;1.00;;;;;;6176908;23;21040;-87
2023/04/26 04:07:57;;;;;;;8.23;2.93;;;3.80;1.00;;;;;;6177035;23;20214;-87
2023/04/26 04:10:23;;;;;;;8.40;2.90;;;3.90;1.00;;;;;;6176381;23;20155;-87
2023/04/26 04:12:49;;;;;;;5.90;2.37;;;4.80;1.00;;;;;;6176475;23;20529;-88
2023/04/26 04:15:15;;;;;;;7.03;2.80;;;4.00;1.00;;;;;;6176801;23;20159;-87
2023/04/26 04:17:41;;;;;;;8.13;3.63;;;3.90;1.00;;;;;;6177689;23;20162;-88
2023/04/26 04:20:07;;;;;;;7.37;2.87;;;3.90;1.00;;;;;;6176280;23;20159;-88
2023/04/26 04:22:33;;;;;;;5.23;2.90;;;3.90;1.00;;;;;;6176408;23;20209;-87
2023/04/26 04:24:59;;;;;;;7.17;2.60;;;3.90;1.00;;;;;;6176604;23;20167;-88
2023/04/26 04:27:25;;;;;;;9.47;2.73;;;3.90;1.00;;;;;;6176074;23;20272;-88
2023/04/26 04:29:52;;;;;;;5.93;2.50;;;4.10;1.00;;;;;;6178075;23;20201;-88
2023/04/26 04:32:18;;;;;;;3.83;2.23;;;4.10;1.00;;;;;;6176231;23;20187;-89
2023/04/26 04:34:44;;;;;;;6.47;2.53;;;4.20;1.00;;;;;;6176201;23;20214;-88
2023/04/26 04:37:10;;;;;;;6.03;2.90;;;4.30;1.00;;;;;;6181317;23;20196;-87
2023/04/26 04:39:36;;;;;;;6.10;2.40;;;4.30;1.00;;;;;;6179180;23;20561;-87
2023/04/26 04:42:02;;;;;;;4.43;2.53;;;4.30;1.00;;;;;;6177926;23;20201;-88
2023/04/26 04:44:27;;;;;;;5.53;2.60;;;4.40;1.00;;;;;;6177760;23;20190;-87
2023/04/26 04:46:53;;;;;;;5.33;2.97;;;4.40;1.00;;;;;;6178149;23;20564;-87
2023/04/26 04:49:18;;;;;;;9.13;2.70;;;4.40;1.00;;;;;;6177458;23;20162;-88
2023/04/26 04:51:44;;;;;;;6.80;2.63;;;4.50;1.00;;;;;;6177776;23;20186;-88
2023/04/26 04:54:15;;;;;;;5.37;2.77;;;4.50;1.00;;;;;;6177439;23;20602;-88
2023/04/26 04:56:42;;;;;;;8.17;2.83;;;4.50;1.00;;;;;;6177739;23;20546;-88
2023/04/26 04:59:07;;;;;;;6.30;2.73;;;4.60;1.00;;;;;;6177410;23;20158;-88
2023/04/26 05:01:34;;;;;;;7.70;3.17;;;4.60;1.00;;;;;;6178089;23;20185;-88
2023/04/26 05:04:00;;;;;;;7.37;2.80;;;4.70;1.00;;;;;;6180775;23;20169;-87
2023/04/26 05:06:26;;;;;;;8.10;2.70;;;4.80;1.00;;;;;;6181585;23;20496;-89
2023/04/26 05:08:52;;;;;;;7.67;3.17;;;4.80;1.00;;;;;;6180588;23;20162;-87
2023/04/26 05:11:18;;;;;;;8.97;3.40;;;4.80;1.00;;;;;;6181012;23;20251;-88
2023/04/26 05:13:45;;;;;;;12.33;3.37;;;4.90;1.00;;;;;;6181309;23;20227;-87
2023/04/26 05:16:10;;;;;;;9.50;3.03;;;5.00;1.00;;;;;;6181262;23;20158;-89
2023/04/26 05:18:36;;;;;;;6.07;3.10;;;5.10;1.00;;;;;;6180766;23;20278;-87
2023/04/26 05:21:02;;;;;;;7.07;2.70;;;5.20;1.00;;;;;;6181202;23;20189;-88
2023/04/26 05:23:28;;;;;;;9.40;3.00;;;5.30;1.00;;;;;;6181300;23;20165;-87
2023/04/26 05:25:53;;;;;;;9.00;3.20;;;5.40;1.00;;;;;;6181250;23;20162;-88
2023/04/26 05:28:19;;;;;;;7.97;3.37;;;5.40;1.00;;;;;;6180877;23;20162;-89
2023/04/26 05:30:45;;;;;;;7.20;3.10;;;5.40;1.00;;;;;;6180794;23;20248;-87
2023/04/26 05:33:11;;;;;;;9.77;3.67;;;5.40;1.00;;;;;;6181058;23;20631;-88
2023/04/26 05:35:37;;;;;;;7.23;3.40;;;5.40;1.00;;;;;;6181337;23;20178;-87
2023/04/26 05:38:03;;;;;;;8.33;3.00;;;5.50;1.00;;;;;;6179128;23;20232;-88
2023/04/26 05:40:28;;;;;;;8.30;3.30;;;5.60;1.00;;;;;;6178954;23;20205;-88
2023/04/26 05:42:54;;;;;;;10.07;3.43;;;5.50;1.00;;;;;;6177544;23;20186;-88
2023/04/26 05:45:20;;;;;;;10.60;3.43;;;5.60;1.00;;;;;;6178075;23;20169;-88
2023/04/26 05:47:48;;;;;;;11.73;3.60;;;5.70;1.00;;;;;;6177222;23;20169;-87
2023/04/26 05:50:14;;;;;;;8.00;3.60;;;5.80;1.00;;;;;;6206207;23;20591;-87
2023/04/26 05:52:39;;;;;;;8.83;3.40;;;6.50;1.00;;;;;;6181127;23;20181;-87
2023/04/26 05:55:05;;;;;;;9.13;3.33;;;6.00;1.00;;;;;;6182612;23;20632;-87
2023/04/26 05:57:31;;;;;;;10.63;4.20;;;6.20;1.00;;;;;;6183124;23;20269;-88
2023/04/26 05:59:56;;;;;;;7.53;3.00;;;6.30;1.00;;;;;;6182564;23;20186;-87
2023/04/26 06:02:22;;;;;;;14.97;4.33;;;6.30;1.00;;;;;;6183108;23;20184;-87
2023/04/26 06:04:48;;;;;;;10.77;3.53;;;6.20;1.00;;;;;;6182937;23;20162;-87
2023/04/26 06:07:14;;;;;;;7.60;3.30;;;6.40;1.00;;;;;;6182386;23;20426;-88
2023/04/26 06:09:41;;;;;;;10.50;4.00;;;6.30;1.00;;;;;;6181975;23;20162;-87
2023/04/26 06:12:07;;;;;;;8.50;3.27;;;6.40;1.00;;;;;;6182873;23;20182;-87
2023/04/26 06:14:38;;;;;;;10.50;3.27;;;6.30;1.00;;;;;;6183548;23;20190;-87
2023/04/26 06:17:05;;;;;;;8.83;3.37;;;6.30;1.00;;;;;;6184440;23;20157;-88
2023/04/26 06:19:35;;;;;;;7.43;3.67;;;6.40;1.00;;;;;;6183416;23;20147;-87
2023/04/26 06:22:00;;;;;;;9.00;3.40;;;6.40;1.00;;;;;;6183977;23;20503;-87
2023/04/26 06:24:26;;;;;;;12.00;3.83;;;6.50;1.00;;;;;;6210374;23;20144;-87
2023/04/26 06:26:51;;;;;;;14.37;3.87;;;6.60;1.00;;;;;;6185612;23;20157;-87
2023/04/26 06:29:17;;;;;;;9.17;3.40;;;6.60;1.00;;;;;;6185361;23;20177;-88
2023/04/26 06:31:42;;;;;;;9.50;3.57;;;6.70;1.00;;;;;;6184020;23;20273;-88
2023/04/26 06:34:22;;;;;;;11.43;3.63;;;6.60;1.00;;;;;;6180584;23;20197;-87
2023/04/26 06:36:49;;;;;;;9.20;3.50;;;6.90;1.00;;;;;;6182790;23;20170;-88
2023/04/26 06:39:16;;;;;;;9.17;2.83;;;7.40;1.00;;;;;;6182089;23;20273;-89
2023/04/26 06:41:42;;;;;;;9.77;3.20;;;7.60;1.00;;;;;;6181977;23;20182;-87
2023/04/26 06:44:07;;;;;;;9.43;3.53;;;8.10;1.00;;;;;;6182351;23;20289;-87
2023/04/26 06:46:41;;;;;;;6.83;2.87;;;8.90;1.00;;;;;;6181710;23;20216;-87
2023/04/26 06:49:07;;;;;;;5.43;2.27;;;10.00;1.00;;;;;;6181258;23;20158;-88
2023/04/26 06:51:32;;;;;;;6.90;2.40;;;10.60;1.00;;;;;;6178656;23;20175;-85
2023/04/26 06:53:59;;;;;;;8.47;2.47;;;11.40;1.00;;;;;;6181768;23;20986;-85
2023/04/26 06:56:25;;;;;;;6.67;2.20;;;12.20;1.00;;;;;;6182781;23;20155;-86
2023/04/26 06:59:02;;;;;;;5.30;2.23;;;13.30;1.00;;;;;;6182170;23;20155;-85
2023/04/26 07:01:32;;;;;;;5.43;2.53;;;14.20;1.00;;;;;;6181798;23;20240;-87
2023/04/26 07:04:12;;;;;;;5.73;2.30;;;14.40;1.00;;;;;;6180766;23;20245;-88
2023/04/26 07:06:39;;;;;;;8.88;2.70;;;14.60;1.00;;;;;;6158068;23;20158;-88
2023/04/26 07:09:07;;;;;;;6.93;2.63;;;15.00;1.00;;;;;;6156561;23;20170;-87
2023/04/26 07:11:36;;;;;;;7.03;2.93;;;14.40;1.00;;;;;;6180844;23;20236;-88
2023/04/26 07:14:05;;;;;;;6.73;2.47;;;11.90;1.00;;;;;;6180956;23;20705;-87
2023/04/26 07:16:51;;;;;;;9.63;2.70;;;10.30;1.00;;;;;;6179964;23;20163;-86
2023/04/26 07:19:18;;;;;;;8.70;2.90;;;9.40;1.00;;;;;;6180911;23;20150;-87
2023/04/26 07:21:52;;;;;;;9.07;2.87;;;9.00;1.00;;;;;;6181844;23;20630;-87
2023/04/26 07:24:18;;;;;;;9.53;2.70;;;9.10;1.00;;;;;;6181811;23;20170;-87
2023/04/26 07:26:45;;;;;;;6.33;2.80;;;9.20;1.00;;;;;;6181766;23;20166;-88
2023/04/26 07:29:13;;;;;;;9.43;2.90;;;9.30;1.00;;;;;;6180624;23;20166;-87
2023/04/26 07:31:38;;;;;;;10.80;2.70;;;9.30;1.00;;;;;;6207619;23;20228;-86
2023/04/26 07:34:04;;;;;;;12.57;3.13;;;9.20;1.00;;;;;;6181670;23;20506;-88
2023/04/26 07:36:30;;;;;;;7.80;3.30;;;9.10;1.00;;;;;;6180771;23;20607;-87
2023/04/26 07:39:11;;;;;;;6.03;2.50;;;8.80;1.00;;;;;;6180595;23;20158;-87
2023/04/26 07:41:46;;;;;;;7.87;2.80;;;8.70;1.00;;;;;;6180608;23;20178;-88
2023/04/26 07:44:12;;;;;;;5.97;2.70;;;8.60;1.00;;;;;;6181669;23;20157;-87
2023/04/26 07:46:38;;;;;;;5.07;2.60;;;8.40;1.00;;;;;;6180872;23;20172;-86
2023/04/26 07:49:03;;;;;;;8.03;2.80;;;8.50;1.00;;;;;;6180834;23;20249;-87
2023/04/26 07:51:30;;;;;;;8.30;3.00;;;8.70;1.00;;;;;;6179590;23;20181;-88
2023/04/26 07:54:33;;;;;;;6.77;2.60;;;8.90;1.00;;;;;;6181464;23;20190;-88
2023/04/26 07:56:59;;;;;;;7.13;2.70;;;8.70;1.00;;;;;;6181357;23;20628;-87
2023/04/26 07:59:25;;;;;;;7.20;2.63;;;8.80;1.00;;;;;;6180632;23;20238;-87
2023/04/26 08:01:52;;;;;;;5.63;2.67;;;8.80;1.00;;;;;;6180633;23;20182;-87
2023/04/26 08:04:31;;;;;;;5.53;2.63;;;8.90;1.00;;;;;;6180873;23;20166;-87
2023/04/26 08:07:03;;;;;;;7.57;2.60;;;8.80;1.00;;;;;;6181019;23;20166;-88
2023/04/26 08:09:29;;;;;;;8.03;2.63;;;8.70;1.00;;;;;;6205892;23;20225;-86
2023/04/26 08:11:56;;;;;;;10.10;3.03;;;8.60;1.00;;;;;;6179275;23;20186;-87
2023/04/26 08:14:21;;;;;;;5.30;2.27;;;8.90;1.00;;;;;;6178628;23;20186;-87
2023/04/26 08:16:47;;;;;;;8.07;2.40;;;9.20;1.00;;;;;;6174282;23;20169;-87
2023/04/26 08:19:13;;;;;;;7.60;2.83;;;9.20;1.00;;;;;;6149575;23;20167;-87
2023/04/26 08:21:39;;;;;;;5.13;2.20;;;9.50;1.00;;;;;;6175361;23;20696;-87
2023/04/26 08:24:06;;;;;;;5.17;2.60;;;9.40;1.00;;;;;;6176074;23;20173;-87
2023/04/26 08:26:31;;;;;;;4.33;2.20;;;9.00;1.00;;;;;;6172558;23;20170;-87
2023/04/26 08:28:57;;;;;;;6.80;2.53;;;8.90;1.00;;;;;;6175260;23;20244;-87
2023/04/26 08:31:23;;;;;;;6.47;2.50;;;8.70;1.00;;;;;;6175334;23;20162;-86
2023/04/26 08:33:48;;;;;;;5.40;2.20;;;8.50;1.00;;;;;;6175043;23;20193;-87
2023/04/26 08:36:14;;;;;;;5.77;2.43;;;8.30;1.00;;;;;;6171944;23;20240;-86
2023/04/26 08:38:41;;;;;;;4.67;2.00;;;8.30;1.00;;;;;;6171299;23;20150;-87
2023/04/26 08:41:12;;;;;;;5.20;1.93;;;8.60;1.00;;;;;;6173054;23;20151;-84
2023/04/26 08:43:38;;;;;;;6.17;2.13;;;8.90;1.00;;;;;;6175022;23;20242;-86
2023/04/26 08:46:09;;;;;;;5.60;1.90;;;9.00;1.00;;;;;;6176840;23;20194;-84
2023/04/26 08:48:36;;;;;;;7.70;2.03;;;9.20;1.00;;;;;;6176726;23;20162;-85
2023/04/26 08:51:02;;;;;;;7.00;2.07;;;9.30;1.00;;;;;;6177865;23;20610;-85
2023/04/26 08:53:30;;;;;;;8.40;2.17;;;9.50;1.00;;;;;;6175077;23;20194;-86
2023/04/26 08:55:56;;;;;;;3.40;1.77;;;9.60;1.00;;;;;;6174094;23;20162;-85
2023/04/26 08:58:22;;;;;;;5.87;2.33;;;9.60;1.00;;;;;;6174837;23;20190;-85
2023/04/26 09:00:49;;;;;;;3.40;2.00;;;9.80;1.00;;;;;;6173577;23;20189;-86
2023/04/26 09:03:15;;;;;;;4.63;1.90;;;10.00;1.00;;;;;;6174773;23;20209;-85
2023/04/26 09:05:44;;;;;;;4.17;1.80;;;10.00;1.00;;;;;;6175543;23;20205;-87
2023/04/26 09:08:16;;;;;;;4.50;1.80;;;10.00;1.00;;;;;;6173761;23;20163;-85
2023/04/26 09:10:42;;;;;;;6.57;2.00;;;10.10;1.00;;;;;;6172129;23;20402;-86
2023/04/26 09:13:07;;;;;;;5.00;1.90;;;9.80;1.00;;;;;;6172289;23;20215;-85
2023/04/26 09:15:33;;;;;;;4.33;2.27;;;10.00;1.00;;;;;;6172183;23;20159;-85
2023/04/26 09:18:19;;;;;;;7.77;2.70;;;9.80;1.00;;;;;;6173995;23;20151;-86
2023/04/26 09:20:59;;;;;;;9.50;2.80;;;9.90;1.00;;;;;;6172704;23;21267;-86
2023/04/26 09:23:25;;;;;;;6.93;2.90;;;10.10;1.00;;;;;;6174305;23;20187;-86
2023/04/26 09:25:51;;;;;;;6.23;2.13;;;10.20;1.00;;;;;;6172411;23;20333;-86
2023/04/26 09:28:21;;;;;;;6.03;2.00;;;10.50;1.00;;;;;;6173906;23;20167;-87
2023/04/26 09:30:47;;;;;;;7.77;2.60;;;10.50;1.00;;;;;;6174668;23;20154;-86
2023/04/26 09:33:12;;;;;;;6.87;1.73;;;10.40;1.00;;;;;;6174995;23;20294;-87
2023/04/26 09:35:42;;;;;;;3.63;1.70;;;10.60;1.00;;;;;;6177186;23;20170;-87
2023/04/26 09:38:13;;;;;;;4.67;2.20;;;10.80;1.00;;;;;;6176993;23;20511;-86
2023/04/26 09:40:43;;;;;;;5.20;1.90;;;10.90;1.00;;;;;;6176039;23;20245;-90
2023/04/26 09:43:13;;;;;;;6.60;2.10;;;10.60;1.00;;;;;;6174843;23;20182;-87
2023/04/26 09:45:53;;;;;;;6.80;2.10;;;10.00;1.00;;;;;;6176865;23;20147;-87
2023/04/26 09:48:20;;;;;;;6.73;1.97;;;9.80;1.00;;;;;;6173784;23;20158;-88
2023/04/26 09:50:47;;;;;;;6.10;2.10;;;9.60;1.00;;;;;;6177747;23;20171;-87
2023/04/26 09:53:26;;;;;;;6.20;2.38;;;9.80;1.00;;;;;;6174533;23;20717;-84
2023/04/26 09:55:53;;;;;;;5.90;2.13;;;10.00;1.00;;;;;;6176558;23;20238;-85
2023/04/26 09:58:18;;;;;;;5.37;2.07;;;10.00;1.00;;;;;;6176517;23;20160;-87
2023/04/26 10:00:46;;;;;;;6.40;1.70;;;9.90;1.00;;;;;;6175557;23;20155;-87
2023/04/26 10:03:12;;;;;;;6.43;1.83;;;10.10;1.00;;;;;;6176211;23;20182;-87
2023/04/26 10:05:38;;;;;;;5.17;1.87;;;10.50;1.00;;;;;;6176216;23;20160;-87
2023/04/26 10:08:05;;;;;;;2.90;1.80;;;10.80;1.00;;;;;;6175273;23;20159;-87
2023/04/26 10:10:31;;;;;;;5.43;1.93;;;11.00;1.00;;;;;;6175303;23;20468;-87
2023/04/26 10:12:56;;;;;;;4.87;1.57;;;10.90;1.00;;;;;;6175242;23;20948;-86
2023/04/26 10:15:22;;;;;;;3.17;1.30;;;10.60;1.00;;;;;;6177411;23;20187;-87
2023/04/26 10:17:48;;;;;;;5.83;1.73;;;10.20;1.00;;;;;;6176095;23;20208;-88
2023/04/26 10:20:16;;;;;;;4.67;1.40;;;9.90;1.00;;;;;;6181153;22;20206;-89
2023/04/26 10:22:49;;;;;;;3.37;1.23;;;10.30;1.00;;;;;;6181867;23;20178;-90
2023/04/26 10:25:14;;;;;;;4.97;1.47;;;9.80;1.00;;;;;;6182775;23;20205;-89
2023/04/26 10:27:44;;;;;;;4.03;1.37;;;9.90;1.00;;;;;;6187171;23;20576;-89
2023/04/26 10:30:12;;;;;;;4.17;1.50;;;10.00;1.00;;;;;;6188923;23;20162;-89
2023/04/26 10:33:07;;;;;;;3.07;1.30;;;10.00;1.00;;;;;;6187164;23;20235;-89
2023/04/26 10:35:36;;;;;;;2.70;1.40;;;9.90;1.00;;;;;;6163044;23;20170;-89
2023/04/26 10:38:02;;;;;;;3.50;1.50;;;9.80;1.00;;;;;;6189093;23;20147;-90
2023/04/26 10:40:29;;;;;;;3.67;1.50;;;9.80;1.00;;;;;;6188008;23;20205;-91
2023/04/26 10:43:15;;;;;;;4.37;1.43;;;9.60;1.00;;;;;;6200923;23;20635;-89
2023/04/26 10:45:48;;;;;;;5.83;1.80;;;9.60;1.00;;;;;;6183308;23;20147;-90
2023/04/26 10:48:18;;;;;;;2.60;1.60;;;9.60;1.00;;;;;;6183275;23;20147;-89
2023/04/26 10:51:07;;;;;;;4.60;2.00;;;10.10;1.00;;;;;;6183204;23;20154;-89
2023/04/26 10:53:47;;;;;;;3.17;1.73;;;10.40;1.00;;;;;;6182774;23;20182;-89
2023/04/26 10:56:39;;;;;;;4.57;1.60;;;10.90;1.00;;;;;;6183170;23;20188;-89
2023/04/26 10:59:33;;;;;;;2.63;1.80;;;11.40;1.00;;;;;;6182827;23;20163;-90
2023/04/26 11:02:09;;;;;;;4.53;1.70;;;11.60;1.00;;;;;;6184171;23;20185;-89
2023/04/26 11:04:53;;;;;;;4.53;1.60;;;11.20;1.00;;;;;;6183744;23;20153;-89
2023/04/26 11:07:38;;;;;;;4.93;1.83;;;11.10;1.00;;;;;;6184440;23;20185;-89
2023/04/26 11:10:09;;;;;;;7.60;2.03;;;11.00;1.00;;;;;;6183563;23;20189;-89
2023/04/26 11:12:35;;;;;;;2.73;1.60;;;10.90;1.00;;;;;;6209674;23;20170;-89
2023/04/26 11:15:01;;;;;;;2.57;1.70;;;10.60;1.00;;;;;;6182820;23;20300;-90
2023/04/26 11:17:26;;;;;;;3.73;1.63;;;10.40;1.00;;;;;;6183366;23;20253;-90
2023/04/26 11:19:52;;;;;;;2.77;1.73;;;10.30;1.00;;;;;;6177348;23;20185;-89
2023/04/26 11:22:21;;;;;;;3.27;1.50;;;10.30;1.00;;;;;;6177675;23;20191;-90
2023/04/26 11:24:47;;;;;;;2.90;1.70;;;10.50;1.00;;;;;;6178053;23;20166;-88
2023/04/26 11:27:12;;;;;;;4.03;1.53;;;10.70;1.00;;;;;;6180340;23;20163;-89
2023/04/26 11:29:38;;;;;;;3.57;1.63;;;11.50;1.00;;;;;;6182622;23;20159;-90
2023/04/26 11:32:04;;;;;;;3.67;1.70;;;10.80;1.00;;;;;;6182467;23;20623;-90
2023/04/26 11:34:34;;;;;;;1.83;1.30;;;10.60;1.00;;;;;;6181780;23;20183;-90
2023/04/26 11:37:01;;;;;;;3.83;1.50;;;10.40;1.00;;;;;;6182749;23;20238;-90
2023/04/26 11:39:27;;;;;;;3.20;1.40;;;10.20;1.00;;;;;;6182911;23;20166;-90
2023/04/26 11:42:06;;;;;;;3.50;1.70;;;9.90;1.00;;;;;;6182411;23;20179;-90
2023/04/26 11:44:31;;;;;;;3.60;1.80;;;9.70;1.00;;;;;;6181651;23;20501;-89
2023/04/26 11:46:58;;;;;;;3.00;1.90;;;9.40;1.00;;;;;;6181771;23;20159;-89
2023/04/26 11:49:24;;;;;;;8.87;2.00;;;9.40;1.00;;;;;;6181372;23;20186;-89
2023/04/26 11:51:50;;;;;;;3.93;2.03;;;9.30;1.00;;;;;;6181526;23;20187;-89
2023/04/26 11:54:29;;;;;;;5.07;1.87;;;9.50;1.00;;;;;;6181598;23;20659;-90
2023/04/26 11:56:54;;;;;;;3.70;1.80;;;9.70;1.00;;;;;;6181647;23;20241;-90
2023/04/26 11:59:28;;;;;;;3.00;1.93;;;9.80;1.00;;;;;;6181568;23;20199;-91
2023/04/26 12:01:55;;;;;;;2.80;1.83;;;9.70;1.00;;;;;;6181498;23;20210;-90
2023/04/26 12:04:30;;;;;;;3.00;1.60;;;9.70;1.00;;;;;;6180657;23;20247;-90
2023/04/26 12:06:56;;;;;;;5.57;2.10;;;9.70;1.00;;;;;;6180451;23;20158;-89
2023/04/26 12:09:29;;;;;;;4.37;2.30;;;9.80;1.00;;;;;;6180146;23;20622;-90
2023/04/26 12:12:06;;;;;;;4.67;2.20;;;9.60;1.00;;;;;;6180033;23;20587;-90
2023/04/26 12:15:13;;;;;;;4.10;2.00;;;9.80;1.00;;;;;;6180483;23;20170;-90
2023/04/26 12:17:39;;;;;;;5.53;2.13;;;10.20;1.00;;;;;;6176460;23;20162;-91
2023/04/26 12:20:11;;;;;;;2.63;1.77;;;10.20;1.00;;;;;;6181601;23;20171;-90
2023/04/26 12:22:37;;;;;;;5.43;2.40;;;10.30;1.00;;;;;;6182962;23;20253;-91
2023/04/26 12:25:05;;;;;;;4.57;2.30;;;10.40;1.00;;;;;;6185971;23;20186;-91
2023/04/26 12:27:30;;;;;;;3.47;1.90;;;10.60;1.00;;;;;;6186380;23;20227;-91
2023/04/26 12:29:56;;;;;;;3.53;1.80;;;10.80;1.00;;;;;;6184943;23;20147;-89
2023/04/26 12:32:24;;;;;;;3.03;1.60;;;10.80;1.00;;;;;;6185711;23;20187;-90
2023/04/26 12:34:50;;;;;;;3.03;1.53;;;10.80;1.00;;;;;;6183134;23;20186;-89
2023/04/26 12:37:17;;;;;;;5.93;2.00;;;10.80;1.00;;;;;;6182340;23;20155;-89
2023/04/26 12:39:43;;;;;;;4.87;1.70;;;10.90;1.00;;;;;;6181995;23;20147;-90
2023/04/26 12:42:08;;;;;;;4.23;2.30;;;10.90;1.00;;;;;;6181337;23;20206;-89
2023/04/26 12:44:35;;;;;;;3.20;2.20;;;11.20;1.00;;;;;;6182281;23;20159;-89
2023/04/26 12:47:14;;;;;;;3.97;2.00;;;11.40;1.00;;;;;;6182578;23;20185;-89
2023/04/26 12:49:40;;;;;;;4.10;1.83;;;11.70;1.00;;;;;;6184357;23;20201;-90
2023/04/26 12:52:05;;;;;;;4.07;2.30;;;11.90;1.00;;;;;;6182622;23;20254;-89
2023/04/26 12:54:55;;;;;;;5.35;2.30;;;11.80;1.00;;;;;;6182539;23;20190;-90
2023/04/26 12:57:21;;;;;;;4.13;2.00;;;11.80;1.00;;;;;;6182508;23;20158;-89
2023/04/26 12:59:53;;;;;;;5.88;1.80;;;11.60;1.00;;;;;;6183405;23;20492;-90
2023/04/26 13:02:21;;;;;;;3.40;1.85;;;11.50;1.00;;;;;;6183643;23;20175;-89
2023/04/26 13:04:53;;;;;;;5.53;1.90;;;11.20;1.00;;;;;;6183930;23;20587;-89
2023/04/26 13:07:19;;;;;;;5.80;3.47;;;11.20;1.00;;;;;;6183806;23;20151;-89
2023/04/26 13:09:47;;;;;;;4.33;2.40;;;11.10;1.00;;;;;;6185821;23;20209;-89
2023/04/26 13:12:14;;;;;;;3.43;1.97;;;11.00;1.00;;;;;;6183484;23;20174;-91
2023/04/26 13:14:47;;;;;;;3.63;2.07;;;11.50;1.00;;;;;;6183267;23;20186;-89
2023/04/26 13:17:13;;;;;;;3.83;2.03;;;10.70;1.00;;;;;;6183169;23;20147;-89
2023/04/26 13:19:38;;;;;;;5.07;2.10;;;10.60;1.00;;;;;;6183631;23;20726;-90